Terminal Aerodrome Forecast
Issued by NWS

Home | Current Version | Previous Version | Text Only | Print | Product List | Glossary On
Versions: 1 2 3 4 5 6 7 8 9 10 11 12 13 14 15 16 17 18
020
FTUS41 KBTV 252008 AAA
TAFSLK
TAF AMD
KSLK 252008Z 2520/2618 10014G22KT 6SM -RA BR OVC025
     FM260100 10009G17KT 3SM -RA BR OVC035
     FM260800 06006KT 3SM -RA BR OVC025
     FM261000 01006KT P6SM VCSH OVC010=

USA.gov is the U.S. government's official web portal to all federal, state and local government web resources and services.